createdAt,value
2022-10-16T00:01:36.218Z,79.60
2022-10-16T00:04:05.018Z,80.00
2022-10-16T00:06:33.459Z,80.30
2022-10-16T00:09:01.649Z,79.80
2022-10-16T00:11:34.390Z,79.60
2022-10-16T00:14:04.401Z,79.80
2022-10-16T00:16:32.935Z,79.20
2022-10-16T00:19:00.756Z,79.10
2022-10-16T00:21:30.831Z,78.90
2022-10-16T00:24:01.060Z,78.70
2022-10-16T00:26:31.900Z,79.20
2022-10-16T00:29:00.109Z,79.70
2022-10-16T00:31:28.388Z,79.30
2022-10-16T00:33:56.372Z,79.20
2022-10-16T00:36:25.988Z,79.70
2022-10-16T00:38:55.581Z,79.10
2022-10-16T00:41:25.627Z,79.20
2022-10-16T00:43:56.588Z,78.30
2022-10-16T00:46:27.528Z,79.10
2022-10-16T00:49:01.633Z,79.10
2022-10-16T00:51:33.751Z,78.80
2022-10-16T00:54:02.442Z,78.90
2022-10-16T00:56:30.442Z,79.30
2022-10-16T00:59:01.367Z,79.30
2022-10-16T01:01:29.852Z,79.40
2022-10-16T01:03:57.657Z,79.00
2022-10-16T01:06:30.489Z,78.90
2022-10-16T01:09:15.809Z,79.00
2022-10-16T01:11:50.663Z,79.00
2022-10-16T01:14:25.511Z,78.60
2022-10-16T01:16:59.433Z,79.70
2022-10-16T01:19:52.139Z,80.80
2022-10-16T01:22:25.477Z,81.40
2022-10-16T01:24:57.293Z,83.20
2022-10-16T01:27:29.986Z,84.20
2022-10-16T01:30:03.370Z,84.30
2022-10-16T01:32:36.817Z,84.90
2022-10-16T01:35:09.994Z,85.80
2022-10-16T01:37:42.513Z,86.50
2022-10-16T01:40:14.674Z,86.80
2022-10-16T01:42:46.789Z,86.50
2022-10-16T01:45:18.964Z,87.00
2022-10-16T01:47:48.635Z,86.90
2022-10-16T01:50:18.823Z,86.70
2022-10-16T01:52:49.318Z,86.60
2022-10-16T01:55:22.896Z,87.20
2022-10-16T01:57:53.256Z,86.80
2022-10-16T02:00:27.902Z,86.40
2022-10-16T02:02:57.253Z,86.30
2022-10-16T02:05:29.708Z,85.20
2022-10-16T02:07:59.398Z,86.10
2022-10-16T02:10:32.200Z,85.60
2022-10-16T02:13:07.240Z,85.10
2022-10-16T02:15:35.032Z,84.00
2022-10-16T02:18:03.694Z,83.50
2022-10-16T02:20:37.617Z,83.50
2022-10-16T02:23:05.895Z,84.60
2022-10-16T02:25:37.050Z,85.60
2022-10-16T02:28:10.563Z,86.40
2022-10-16T02:30:43.280Z,84.50
2022-10-16T02:33:14.539Z,83.70
2022-10-16T02:35:43.644Z,81.60
2022-10-16T02:38:12.501Z,80.30
2022-10-16T02:40:40.553Z,79.90
2022-10-16T02:43:10.586Z,80.30
2022-10-16T02:45:38.584Z,81.80
2022-10-16T02:48:06.974Z,82.50
2022-10-16T02:50:34.815Z,83.80
2022-10-16T02:53:02.820Z,85.00
2022-10-16T02:55:30.612Z,86.00
2022-10-16T02:57:58.390Z,87.00
2022-10-16T03:00:27.585Z,87.80
2022-10-16T03:02:55.366Z,87.80
2022-10-16T03:05:23.259Z,86.90
2022-10-16T03:07:51.035Z,85.70
2022-10-16T03:10:18.808Z,84.60
2022-10-16T03:12:46.578Z,84.60
2022-10-16T03:15:14.431Z,83.90
2022-10-16T03:17:44.078Z,83.90
2022-10-16T03:20:12.299Z,85.00
2022-10-16T03:22:40.073Z,84.00
2022-10-16T03:25:08.788Z,83.00
2022-10-16T03:27:36.590Z,83.50
2022-10-16T03:30:04.904Z,83.70
2022-10-16T03:32:32.758Z,82.90
2022-10-16T03:35:01.916Z,82.50
2022-10-16T03:37:29.968Z,81.60
2022-10-16T03:39:57.820Z,81.70
2022-10-16T03:42:25.618Z,81.00
2022-10-16T03:44:53.386Z,80.90
2022-10-16T03:47:22.778Z,81.40
2022-10-16T03:49:50.819Z,81.50
2022-10-16T03:54:52.663Z,80.10
2022-10-16T03:57:21.578Z,79.90
2022-10-16T03:59:49.408Z,79.70
2022-10-16T04:02:17.258Z,80.20
2022-10-16T04:04:45.030Z,80.60
2022-10-16T04:07:12.842Z,81.00
2022-10-16T04:09:42.038Z,82.20
2022-10-16T04:12:10.171Z,83.30
2022-10-16T04:14:37.943Z,84.20
2022-10-16T04:17:05.738Z,84.30
2022-10-16T04:19:33.539Z,83.60
2022-10-16T04:22:01.292Z,83.20
2022-10-16T04:24:29.087Z,82.60
2022-10-16T04:26:58.215Z,82.10
2022-10-16T04:29:26.221Z,82.10
2022-10-16T04:31:54.098Z,81.80
2022-10-16T04:34:21.904Z,79.90
2022-10-16T04:36:50.417Z,79.40
2022-10-16T04:39:19.164Z,79.90
2022-10-16T04:41:47.006Z,80.50
2022-10-16T04:44:16.310Z,81.10
2022-10-16T04:46:45.280Z,80.90
2022-10-16T04:49:13.104Z,80.10
2022-10-16T04:51:40.905Z,80.00
2022-10-16T04:54:08.696Z,80.00
2022-10-16T04:56:41.141Z,81.50
2022-10-16T04:59:08.926Z,82.10
2022-10-16T05:01:38.073Z,83.50
2022-10-16T05:04:05.890Z,84.30
2022-10-16T05:06:33.787Z,85.60
2022-10-16T05:09:01.737Z,86.60
2022-10-16T05:11:29.716Z,86.80
2022-10-16T05:13:57.569Z,87.20
2022-10-16T05:16:25.445Z,86.90
2022-10-16T05:18:59.998Z,87.40
2022-10-16T05:21:32.200Z,87.70
2022-10-16T05:23:59.995Z,89.40
2022-10-16T05:26:27.752Z,90.00
2022-10-16T05:28:55.557Z,91.10
2022-10-16T05:31:23.389Z,92.30
2022-10-16T05:33:51.284Z,91.80
2022-10-16T05:36:20.417Z,91.80
2022-10-16T05:38:48.185Z,92.10
2022-10-16T05:41:15.956Z,92.50
2022-10-16T05:43:43.729Z,92.80
2022-10-16T05:46:11.466Z,92.80
2022-10-16T05:48:39.268Z,93.30
2022-10-16T05:51:10.913Z,92.40
2022-10-16T05:53:41.540Z,88.20
2022-10-16T05:56:12.040Z,85.90
2022-10-16T05:58:41.362Z,84.50
2022-10-16T06:01:11.904Z,84.90
2022-10-16T06:03:40.163Z,86.90
2022-10-16T06:06:12.539Z,87.90
2022-10-16T06:08:42.489Z,89.00
2022-10-16T06:11:12.206Z,89.40
2022-10-16T06:13:42.742Z,90.20
2022-10-16T06:16:11.585Z,90.90
2022-10-16T06:18:43.150Z,90.80
2022-10-16T06:21:12.338Z,89.70
2022-10-16T06:23:41.520Z,89.20
2022-10-16T06:26:10.313Z,87.50
2022-10-16T06:28:38.381Z,87.60
2022-10-16T06:31:08.478Z,88.00
2022-10-16T06:33:37.141Z,88.20
2022-10-16T06:36:06.345Z,87.50
2022-10-16T06:38:34.327Z,86.90
2022-10-16T06:41:03.619Z,87.20
2022-10-16T06:43:33.452Z,86.90
2022-10-16T06:46:02.137Z,86.10
2022-10-16T06:48:30.854Z,85.60
2022-10-16T06:51:00.265Z,85.40
2022-10-16T06:53:29.327Z,85.50
2022-10-16T06:55:57.155Z,84.30
2022-10-16T06:58:26.612Z,85.10
2022-10-16T07:00:58.082Z,83.90
2022-10-16T07:03:25.969Z,83.90
2022-10-16T07:05:53.808Z,83.80
2022-10-16T07:08:21.567Z,85.00
2022-10-16T07:10:49.393Z,84.30
2022-10-16T07:13:17.168Z,85.20
2022-10-16T07:15:46.606Z,84.70
2022-10-16T07:18:14.347Z,84.50
2022-10-16T07:20:42.097Z,83.80
2022-10-16T07:23:09.920Z,83.60
2022-10-16T07:25:37.804Z,84.20
2022-10-16T07:28:06.396Z,83.30
2022-10-16T07:30:37.389Z,82.90
2022-10-16T07:33:06.643Z,82.50
2022-10-16T07:35:34.382Z,81.10
2022-10-16T07:38:02.203Z,81.20
2022-10-16T07:40:30.013Z,80.70
2022-10-16T07:42:58.103Z,79.80
2022-10-16T07:45:25.866Z,79.30
2022-10-16T07:47:53.659Z,78.50
2022-10-16T07:50:22.804Z,78.30
2022-10-16T07:52:50.597Z,78.00
2022-10-16T07:55:18.422Z,76.10
2022-10-16T07:57:46.221Z,76.60
2022-10-16T08:00:15.849Z,77.00
2022-10-16T08:02:43.609Z,76.40
2022-10-16T08:05:11.388Z,74.90
2022-10-16T08:07:40.488Z,74.80
2022-10-16T08:10:08.925Z,74.80
2022-10-16T08:12:36.677Z,73.20
2022-10-16T08:15:04.764Z,73.30
2022-10-16T08:17:32.525Z,73.90
2022-10-16T08:20:00.296Z,73.70
2022-10-16T08:22:28.133Z,73.10
2022-10-16T08:24:57.300Z,73.40
2022-10-16T08:27:25.396Z,73.00
2022-10-16T08:29:53.363Z,72.30
2022-10-16T08:32:24.013Z,71.40
2022-10-16T08:34:54.674Z,69.20
2022-10-16T08:37:22.427Z,66.40
2022-10-16T08:39:50.199Z,64.80
2022-10-16T08:42:31.709Z,64.90
2022-10-16T08:45:23.598Z,63.90
2022-10-16T08:47:58.210Z,63.10
2022-10-16T08:50:28.923Z,61.80
2022-10-16T08:52:57.488Z,61.10
2022-10-16T08:55:35.120Z,61.40
2022-10-16T08:58:11.457Z,60.40
2022-10-16T09:00:40.438Z,60.60
2022-10-16T09:03:19.102Z,60.80
2022-10-16T09:06:08.923Z,60.40
2022-10-16T09:08:45.853Z,60.50
2022-10-16T09:11:22.427Z,60.90
2022-10-16T09:14:00.419Z,59.90
2022-10-16T09:16:33.032Z,59.60
2022-10-16T09:19:07.816Z,59.50
2022-10-16T09:21:40.254Z,59.10
2022-10-16T09:24:15.367Z,59.60
2022-10-16T09:26:43.224Z,57.50
2022-10-16T09:29:14.251Z,58.30
2022-10-16T09:31:43.213Z,58.10
2022-10-16T09:34:19.921Z,56.90
2022-10-16T09:36:48.537Z,58.10
2022-10-16T09:39:16.351Z,56.70
2022-10-16T09:41:46.051Z,56.90
2022-10-16T09:44:23.332Z,55.50
2022-10-16T09:46:51.160Z,54.90
2022-10-16T09:49:23.505Z,56.10
2022-10-16T09:51:51.988Z,57.30
2022-10-16T09:54:21.655Z,56.80
2022-10-16T09:56:52.653Z,56.40
2022-10-16T09:59:24.764Z,57.80
2022-10-16T10:01:54.829Z,57.80
2022-10-16T10:04:24.069Z,58.00
2022-10-16T10:06:54.027Z,58.40
2022-10-16T10:09:25.322Z,58.90
2022-10-16T10:11:55.806Z,58.20
2022-10-16T10:14:32.333Z,58.10
2022-10-16T10:17:15.777Z,58.60
2022-10-16T10:19:49.351Z,58.50
2022-10-16T10:22:26.944Z,57.50
2022-10-16T10:25:09.646Z,57.90
2022-10-16T10:27:48.357Z,56.90
2022-10-16T10:30:24.675Z,57.40
2022-10-16T10:33:07.910Z,57.10
2022-10-16T10:35:44.040Z,58.00
2022-10-16T10:38:25.240Z,57.70
2022-10-16T10:40:59.374Z,57.50
2022-10-16T10:43:41.465Z,57.80
2022-10-16T10:46:16.026Z,58.40
2022-10-16T10:48:56.305Z,56.60
2022-10-16T10:51:30.988Z,57.50
2022-10-16T10:54:11.689Z,57.00
2022-10-16T10:56:52.960Z,56.90
2022-10-16T10:59:43.536Z,57.30
2022-10-16T11:02:22.073Z,57.30
2022-10-16T11:05:23.496Z,55.90
2022-10-16T11:07:55.237Z,55.30
2022-10-16T11:10:26.946Z,54.90
2022-10-16T11:13:00.438Z,55.20
2022-10-16T11:15:33.089Z,54.90
2022-10-16T11:18:08.195Z,53.90
2022-10-16T11:20:41.577Z,53.60
2022-10-16T11:23:17.258Z,52.70
2022-10-16T11:25:45.891Z,52.80
2022-10-16T11:28:16.428Z,52.10
2022-10-16T11:30:48.353Z,51.90
2022-10-16T11:33:37.047Z,50.90
2022-10-16T11:36:13.625Z,51.00
2022-10-16T11:38:48.800Z,51.10
2022-10-16T11:41:24.223Z,51.70
2022-10-16T11:43:59.795Z,52.10
2022-10-16T11:46:29.413Z,52.40
2022-10-16T11:49:05.739Z,52.50
2022-10-16T11:51:38.724Z,52.60
2022-10-16T11:54:16.391Z,52.80
2022-10-16T11:56:47.339Z,51.30
2022-10-16T11:59:23.664Z,52.10
2022-10-16T12:01:56.682Z,52.90
2022-10-16T12:04:34.566Z,52.30
2022-10-16T12:07:07.637Z,53.10
2022-10-16T12:09:39.429Z,52.90
2022-10-16T12:12:25.450Z,52.40
2022-10-16T12:15:17.520Z,52.10
2022-10-16T12:17:50.096Z,52.40
2022-10-16T12:20:26.960Z,54.00
2022-10-16T12:22:57.165Z,53.90
2022-10-16T12:25:29.126Z,53.70
2022-10-16T12:28:02.984Z,54.20
2022-10-16T12:30:35.900Z,52.70
2022-10-16T12:33:05.831Z,51.00
2022-10-16T12:35:37.745Z,50.90
2022-10-16T12:40:45.208Z,51.70
2022-10-16T12:43:15.251Z,50.20
2022-10-16T12:45:43.039Z,50.90
2022-10-16T12:48:24.566Z,50.40
2022-10-16T12:50:58.820Z,51.00
2022-10-16T12:53:29.129Z,49.80
2022-10-16T12:56:08.917Z,51.20
2022-10-16T12:58:49.807Z,50.60
2022-10-16T13:01:30.584Z,50.10
2022-10-16T13:04:24.859Z,48.60
2022-10-16T13:07:02.845Z,48.30
2022-10-16T13:09:45.712Z,48.70
2022-10-16T13:12:27.747Z,49.20
2022-10-16T13:15:09.976Z,49.20
2022-10-16T13:17:47.378Z,50.00
2022-10-16T13:20:23.073Z,49.50
2022-10-16T13:23:02.697Z,49.90
2022-10-16T13:25:44.061Z,49.60
2022-10-16T13:28:14.229Z,50.10
2022-10-16T13:30:44.786Z,50.30
2022-10-16T13:33:17.929Z,51.00
2022-10-16T13:35:51.809Z,51.00
2022-10-16T13:38:23.021Z,52.30
2022-10-16T13:40:53.194Z,51.80
2022-10-16T13:43:24.075Z,52.90
2022-10-16T13:45:59.970Z,51.70
2022-10-16T13:48:28.104Z,52.00
2022-10-16T13:51:07.725Z,50.40
2022-10-16T13:53:37.865Z,51.00
2022-10-16T13:56:08.579Z,49.70
2022-10-16T13:58:36.440Z,49.50
2022-10-16T14:01:07.619Z,49.60
2022-10-16T14:03:37.598Z,51.30
2022-10-16T14:06:09.883Z,49.90
2022-10-16T14:08:39.126Z,50.90
2022-10-16T14:11:06.991Z,48.80
2022-10-16T14:13:39.200Z,48.70
2022-10-16T14:16:10.898Z,53.20
2022-10-16T14:18:40.830Z,54.10
2022-10-16T14:21:14.340Z,53.80
2022-10-16T14:23:43.712Z,53.90
2022-10-16T14:26:16.732Z,54.40
2022-10-16T14:28:46.084Z,54.70
2022-10-16T14:31:28.135Z,54.10
2022-10-16T14:33:56.595Z,53.80
2022-10-16T14:36:25.553Z,55.50
2022-10-16T14:39:05.258Z,54.70
2022-10-16T14:41:35.015Z,56.00
2022-10-16T14:44:06.147Z,56.10
2022-10-16T14:46:37.410Z,54.90
2022-10-16T14:49:22.667Z,56.30
2022-10-16T14:51:50.460Z,54.70
2022-10-16T14:54:20.871Z,55.20
2022-10-16T14:56:51.512Z,56.10
2022-10-16T14:59:24.018Z,55.70
2022-10-16T15:01:52.080Z,56.10
2022-10-16T15:04:19.834Z,55.50
2022-10-16T15:06:48.100Z,55.40
2022-10-16T15:09:16.129Z,55.40
2022-10-16T15:11:45.482Z,55.10
2022-10-16T15:16:47.816Z,56.00
2022-10-16T15:19:15.597Z,56.60
2022-10-16T15:21:44.501Z,56.00
2022-10-16T15:24:17.808Z,57.40
2022-10-16T15:26:50.294Z,57.70
2022-10-16T15:29:18.322Z,58.30
2022-10-16T15:31:48.344Z,58.50
2022-10-16T15:34:16.456Z,58.70
2022-10-16T15:36:44.215Z,58.50
2022-10-16T15:39:15.702Z,59.20
2022-10-16T15:41:43.839Z,59.40
2022-10-16T15:44:13.024Z,60.00
2022-10-16T15:46:40.809Z,59.60
2022-10-16T15:49:08.604Z,60.80
2022-10-16T15:51:40.191Z,61.50
2022-10-16T15:54:08.000Z,61.90
2022-10-16T15:56:37.780Z,62.60
2022-10-16T15:59:06.446Z,64.00
2022-10-16T16:01:36.283Z,65.40
2022-10-16T16:04:11.096Z,67.30
2022-10-16T16:06:45.858Z,69.00
2022-10-16T16:09:14.438Z,70.30
2022-10-16T16:11:42.377Z,71.40
2022-10-16T16:14:13.805Z,72.00
2022-10-16T16:16:42.964Z,72.00
2022-10-16T16:19:11.837Z,72.20
2022-10-16T16:21:40.590Z,72.00
2022-10-16T16:24:09.236Z,70.90
2022-10-16T16:26:40.753Z,69.90
2022-10-16T16:29:09.257Z,68.80
2022-10-16T16:31:37.087Z,69.10
2022-10-16T16:34:06.223Z,70.20
2022-10-16T16:36:34.463Z,70.00
2022-10-16T16:39:02.703Z,69.40
2022-10-16T16:41:32.297Z,70.20
2022-10-16T16:44:04.059Z,69.60
2022-10-16T16:46:33.289Z,66.70
2022-10-16T16:49:01.428Z,67.20
2022-10-16T16:51:30.832Z,67.20
2022-10-16T16:53:58.672Z,68.30
2022-10-16T16:56:27.656Z,68.30
2022-10-16T16:58:57.038Z,69.10
2022-10-16T17:01:26.653Z,69.80
2022-10-16T17:03:56.980Z,70.00
2022-10-16T17:06:27.320Z,71.00
2022-10-16T17:08:56.454Z,71.90
2022-10-16T17:11:26.892Z,71.50
2022-10-16T17:13:57.113Z,72.90
2022-10-16T17:16:26.365Z,70.70
2022-10-16T17:18:54.222Z,70.80
2022-10-16T17:21:22.624Z,71.10
2022-10-16T17:23:53.560Z,73.80
2022-10-16T17:26:22.734Z,75.00
2022-10-16T17:28:53.561Z,75.30
2022-10-16T17:31:23.042Z,75.20
2022-10-16T17:33:51.583Z,73.90
2022-10-16T17:36:20.469Z,73.30
2022-10-16T17:38:48.310Z,72.10
2022-10-16T17:41:18.300Z,71.80
2022-10-16T17:43:48.178Z,71.90
2022-10-16T17:46:17.963Z,71.10
2022-10-16T17:48:48.443Z,71.20
2022-10-16T17:51:19.003Z,70.60
2022-10-16T17:53:50.166Z,70.10
2022-10-16T17:56:17.959Z,69.60
2022-10-16T17:58:51.571Z,69.30
2022-10-16T18:01:21.828Z,69.20
2022-10-16T18:03:51.216Z,69.40
2022-10-16T18:06:22.660Z,69.20
2022-10-16T18:08:51.201Z,69.00
2022-10-16T18:11:19.254Z,69.20
2022-10-16T18:13:48.809Z,68.90
2022-10-16T18:16:17.092Z,69.40
2022-10-16T18:18:45.715Z,68.80
2022-10-16T18:21:15.984Z,68.00
2022-10-16T18:23:49.218Z,69.60
2022-10-16T18:26:21.133Z,68.80
2022-10-16T18:28:53.461Z,70.20
2022-10-16T18:31:22.931Z,73.10
2022-10-16T18:33:51.375Z,74.80
2022-10-16T18:36:21.329Z,75.70
2022-10-16T18:38:49.661Z,75.60
2022-10-16T18:41:17.726Z,75.20
2022-10-16T18:43:45.523Z,76.50
2022-10-16T18:46:17.240Z,77.50
2022-10-16T18:48:46.791Z,78.50
2022-10-16T18:51:17.216Z,79.10
2022-10-16T18:53:46.772Z,79.20
2022-10-16T18:56:15.943Z,78.30
2022-10-16T18:58:44.900Z,75.40
2022-10-16T19:01:17.008Z,74.90
2022-10-16T19:03:45.111Z,76.10
2022-10-16T19:06:15.620Z,77.10
2022-10-16T19:08:44.285Z,76.80
2022-10-16T19:11:14.921Z,76.70
2022-10-16T19:13:42.767Z,77.80
2022-10-16T19:16:21.265Z,74.10
2022-10-16T19:18:52.471Z,73.40
2022-10-16T19:21:20.349Z,75.50
2022-10-16T19:23:51.767Z,75.70
2022-10-16T19:26:20.273Z,72.00
2022-10-16T19:28:48.199Z,71.00
2022-10-16T19:31:18.428Z,70.30
2022-10-16T19:33:46.826Z,69.20
2022-10-16T19:36:18.191Z,68.00
2022-10-16T19:38:47.413Z,68.20
2022-10-16T19:41:16.935Z,68.10
2022-10-16T19:43:45.893Z,67.00
2022-10-16T19:46:15.401Z,65.20
2022-10-16T19:48:43.920Z,64.00
2022-10-16T19:51:19.436Z,64.10
2022-10-16T19:53:48.027Z,63.30
2022-10-16T19:56:17.263Z,62.40
2022-10-16T19:58:46.505Z,61.90
2022-10-16T20:01:15.617Z,61.10
2022-10-16T20:03:44.838Z,60.20
2022-10-16T20:06:13.109Z,59.70
2022-10-16T20:08:44.347Z,58.70
2022-10-16T20:11:14.860Z,58.10
2022-10-16T20:13:42.725Z,57.90
2022-10-16T20:16:11.886Z,58.50
2022-10-16T20:18:39.819Z,63.00
2022-10-16T20:21:11.105Z,65.60
2022-10-16T20:23:39.016Z,67.60
2022-10-16T20:26:11.261Z,69.50
2022-10-16T20:28:41.510Z,70.30
2022-10-16T20:31:11.993Z,71.20
2022-10-16T20:33:40.895Z,72.40
2022-10-16T20:36:12.248Z,73.60
2022-10-16T20:38:40.142Z,74.50
2022-10-16T20:41:09.811Z,74.60
2022-10-16T20:43:41.074Z,74.60
2022-10-16T20:46:10.950Z,75.60
2022-10-16T20:48:41.034Z,75.40
2022-10-16T20:51:13.485Z,75.30
2022-10-16T20:53:41.327Z,76.10
2022-10-16T20:56:12.039Z,76.90
2022-10-16T20:58:41.363Z,76.70
2022-10-16T21:01:10.857Z,78.00
2022-10-16T21:03:38.964Z,73.50
2022-10-16T21:06:08.760Z,70.40
2022-10-16T21:08:37.151Z,65.40
2022-10-16T21:11:12.866Z,61.30
2022-10-16T21:13:40.870Z,60.40
2022-10-16T21:16:09.695Z,60.60
2022-10-16T21:18:40.803Z,59.70
2022-10-16T21:21:12.985Z,58.90
2022-10-16T21:23:40.776Z,58.10
2022-10-16T21:26:08.812Z,57.80
2022-10-16T21:28:37.964Z,56.90
2022-10-16T21:31:12.793Z,57.20
2022-10-16T21:33:41.496Z,57.80
2022-10-16T21:36:17.287Z,58.00
2022-10-16T21:41:20.329Z,58.40
2022-10-16T21:43:50.083Z,57.90
2022-10-16T21:46:19.355Z,58.50
2022-10-16T21:48:47.473Z,58.50
2022-10-16T21:51:16.109Z,58.90
2022-10-16T21:53:43.925Z,59.40
2022-10-16T21:56:15.427Z,59.80
2022-10-16T21:58:43.963Z,60.20
2022-10-16T22:01:14.823Z,60.50
2022-10-16T22:03:42.748Z,62.10
2022-10-16T22:06:11.822Z,65.10
2022-10-16T22:08:40.508Z,67.20
2022-10-16T22:11:10.305Z,66.90
2022-10-16T22:13:38.295Z,68.80
2022-10-16T22:16:06.755Z,69.80
2022-10-16T22:18:36.973Z,72.70
2022-10-16T22:21:06.660Z,73.00
2022-10-16T22:23:34.681Z,75.00
2022-10-16T22:26:03.705Z,75.50
2022-10-16T22:28:31.582Z,77.10
2022-10-16T22:31:02.396Z,77.20
2022-10-16T22:33:30.269Z,77.10
2022-10-16T22:36:01.577Z,78.30
2022-10-16T22:38:30.743Z,77.90
2022-10-16T22:41:03.078Z,78.50
2022-10-16T22:43:30.906Z,78.70
2022-10-16T22:46:03.493Z,77.80
2022-10-16T22:48:31.312Z,76.30
2022-10-16T22:51:00.522Z,74.40
2022-10-16T22:53:28.654Z,74.40
2022-10-16T22:55:56.584Z,74.50
2022-10-16T22:58:24.715Z,74.20
2022-10-16T23:00:52.828Z,73.80
2022-10-16T23:03:20.774Z,73.50
2022-10-16T23:05:48.658Z,74.10
2022-10-16T23:08:17.779Z,74.80
2022-10-16T23:10:47.592Z,74.90
2022-10-16T23:13:15.486Z,75.50
2022-10-16T23:15:44.423Z,74.90
2022-10-16T23:18:12.537Z,75.30
2022-10-16T23:20:41.419Z,74.30
2022-10-16T23:23:09.613Z,74.50
2022-10-16T23:25:45.350Z,74.70
2022-10-16T23:28:13.284Z,75.70
2022-10-16T23:30:41.060Z,77.30
2022-10-16T23:33:08.856Z,78.40
2022-10-16T23:35:40.455Z,79.40
2022-10-16T23:38:08.329Z,79.30
2022-10-16T23:40:36.096Z,78.70
2022-10-16T23:43:05.211Z,78.90
2022-10-16T23:45:32.964Z,79.00
2022-10-16T23:48:00.748Z,78.30
2022-10-16T23:50:30.325Z,76.50
2022-10-16T23:52:58.208Z,76.40
2022-10-16T23:55:26.084Z,77.30
2022-10-16T23:57:53.890Z,77.30
